Time;durP1;ratioP1;P1;durP2;ratioP2;P2;SDS_P1;SDS_P2;PMS_P1;PMS_P2;Temp;Humidity;BMP_temperature;BMP_pressure;BME280_temperature;BME280_humidity;BME280_pressure;Samples;Min_cycle;Max_cycle;Signal;HPM_P1;HPM_P2
2023/04/09 00:01:13;;;;;;;18.90;12.40;;;;;;;10.09;84.14;100301.25;106020;1254;61058;-77
2023/04/09 00:03:42;;;;;;;17.20;11.70;;;;;;;10.04;84.17;100298.08;105955;1260;60523;-79
2023/04/09 00:06:11;;;;;;;19.50;11.50;;;;;;;9.97;84.43;100298.84;106134;1259;73782;-79
2023/04/09 00:08:39;;;;;;;15.00;9.70;;;;;;;9.91;84.39;100297.52;106129;1254;69411;-76
2023/04/09 00:11:10;;;;;;;12.80;9.60;;;;;;;9.87;84.34;100298.70;105996;1258;73819;-77
2023/04/09 00:13:39;;;;;;;15.90;9.40;;;;;;;9.90;83.97;100300.88;106036;1266;62345;-80
2023/04/09 00:16:07;;;;;;;16.80;9.70;;;;;;;9.90;83.91;100302.59;105935;1258;60429;-79
2023/04/09 00:18:37;;;;;;;13.80;8.90;;;;;;;9.84;84.21;100301.55;105819;1259;74033;-76
2023/04/09 00:21:07;;;;;;;13.50;9.60;;;;;;;9.77;84.63;100298.73;105928;1254;71276;-75
2023/04/09 00:23:37;;;;;;;11.40;7.50;;;;;;;9.72;84.69;100300.48;105991;1254;73394;-77
2023/04/09 00:26:05;;;;;;;13.70;9.00;;;;;;;9.74;83.81;100296.38;105939;1259;63011;-76
2023/04/09 00:28:34;;;;;;;20.10;16.20;;;;;;;9.75;84.20;100292.07;105855;1254;60437;-75
2023/04/09 00:31:04;;;;;;;20.00;15.90;;;;;;;9.69;84.35;100294.56;105725;1259;74790;-75
2023/04/09 00:33:32;;;;;;;17.60;12.90;;;;;;;9.61;84.42;100293.71;105808;1260;71298;-73
2023/04/09 00:36:01;;;;;;;24.10;11.40;;;;;;;9.54;84.81;100292.41;105667;1254;71645;-75
2023/04/09 00:38:29;;;;;;;13.90;10.20;;;;;;;9.50;85.09;100294.61;105810;1257;60668;-74
2023/04/09 00:40:58;;;;;;;13.10;8.40;;;;;;;9.56;84.61;100288.58;105756;1261;61612;-74
2023/04/09 00:43:28;;;;;;;10.10;7.80;;;;;;;9.60;84.70;100294.66;105728;1253;74779;-72
2023/04/09 00:45:57;;;;;;;14.60;8.80;;;;;;;9.56;84.71;100292.41;105922;1258;71138;-75
2023/04/09 00:48:26;;;;;;;12.30;8.60;;;;;;;9.51;84.74;100295.81;105902;1260;72876;-75
2023/04/09 00:50:54;;;;;;;11.20;7.90;;;;;;;9.46;84.93;100300.44;105826;1255;60402;-79
2023/04/09 00:53:22;;;;;;;10.90;8.20;;;;;;;9.43;84.98;100298.84;105900;1254;60534;-75
2023/04/09 00:55:52;;;;;;;13.90;9.20;;;;;;;9.48;84.38;100299.36;105999;1254;75014;-77
2023/04/09 00:58:22;;;;;;;15.20;12.20;;;;;;;9.51;84.36;100299.48;105829;1254;69520;-76
2023/04/09 01:00:51;;;;;;;16.60;13.40;;;;;;;9.46;84.60;100300.66;105787;1259;73915;-77
2023/04/09 01:03:20;;;;;;;19.40;17.10;;;;;;;9.39;84.57;100302.17;105837;1259;60823;-74
2023/04/09 01:06:15;;;;;;;14.50;12.90;;;;;;;9.34;84.66;100300.04;105756;1260;61394;-76
2023/04/09 01:08:45;;;;;;;;;;;;;;;9.29;84.83;100297.86;105933;1258;72579;-75
2023/04/09 01:11:50;;;;;;;45.40;36.10;;;;;;;9.34;84.67;100297.89;105675;1259;72558;-75
2023/04/09 01:14:29;;;;;;;25.70;19.70;;;;;;;9.32;84.60;100302.17;105829;1254;73929;-76
2023/04/09 01:17:03;;;;;;;20.30;15.60;;;;;;;9.26;85.09;100301.84;105772;1260;60435;-75
2023/04/09 01:19:53;;;;;;;14.10;11.50;;;;;;;9.22;85.12;100302.77;105814;1261;60401;-74
2023/04/09 01:22:31;;;;;;;14.60;9.90;;;;;;;9.17;85.17;100306.73;105856;1254;73349;-73
2023/04/09 01:25:08;;;;;;;14.10;8.90;;;;;;;9.22;84.70;100306.63;105963;1255;70129;-73
2023/04/09 01:27:52;;;;;;;13.30;8.40;;;;;;;9.21;84.74;100303.37;105882;1254;73587;-74
2023/04/09 01:30:21;;;;;;;12.50;9.00;;;;;;;9.14;84.84;100302.05;105811;1258;61293;-75
2023/04/09 01:32:51;;;;;;;13.80;9.00;;;;;;;9.07;84.90;100304.50;105960;1254;60419;-75
2023/04/09 01:35:20;;;;;;;11.20;7.50;;;;;;;9.01;85.10;100306.27;105778;1269;71880;-72
2023/04/09 01:37:48;;;;;;;13.70;7.30;;;;;;;9.05;84.86;100304.02;105729;1254;71238;-75
2023/04/09 01:40:20;;;;;;;12.80;8.00;;;;;;;9.06;84.55;100300.94;105781;1258;73167;-74
2023/04/09 01:42:48;;;;;;;9.70;8.50;;;;;;;8.99;84.79;100306.18;105740;1259;60842;-75
2023/04/09 01:45:17;;;;;;;12.00;8.60;;;;;;;8.94;85.40;100307.00;105590;1254;61338;-75
2023/04/09 01:47:46;;;;;;;12.00;9.40;;;;;;;8.90;85.35;100307.54;105737;1258;74591;-73
2023/04/09 01:50:18;;;;;;;12.60;7.50;;;;;;;8.87;85.50;100304.84;105770;1260;71189;-77
2023/04/09 01:52:47;;;;;;;12.60;7.30;;;;;;;8.94;85.42;100308.23;105795;1258;73708;-76
2023/04/09 01:55:16;;;;;;;11.10;7.90;;;;;;;8.98;85.35;100307.49;105902;1254;60525;-74
2023/04/09 01:57:44;;;;;;;12.50;7.70;;;;;;;8.93;85.34;100307.14;105830;1257;60420;-74
2023/04/09 02:00:17;;;;;;;15.00;7.90;;;;;;;8.85;85.52;100305.88;105941;1257;74738;-76
2023/04/09 02:03:09;;;;;;;13.60;8.70;;;;;;;8.81;85.53;100300.55;105914;1254;70213;-74
2023/04/09 02:05:42;;;;;;;11.30;7.60;;;;;;;8.77;85.10;100301.45;106019;1254;72167;-74
2023/04/09 02:08:11;;;;;;;11.20;7.60;;;;;;;8.83;84.76;100300.94;105988;1257;60711;-75
2023/04/09 02:10:40;;;;;;;10.20;7.40;;;;;;;8.83;84.86;100302.44;105833;1260;60422;-76
2023/04/09 02:13:08;;;;;;;12.60;8.70;;;;;;;8.78;84.84;100299.30;105988;1254;74278;-75
2023/04/09 02:15:40;;;;;;;14.10;8.50;;;;;;;8.71;84.67;100304.20;105884;1254;71387;-77
2023/04/09 02:18:22;;;;;;;10.60;7.40;;;;;;;8.65;85.34;100304.55;106100;1257;73983;-74
2023/04/09 02:20:52;;;;;;;10.20;6.40;;;;;;;8.72;85.55;100307.30;106299;1254;61017;-75
2023/04/09 02:23:22;;;;;;;10.80;8.30;;;;;;;8.76;85.33;100308.15;106064;1254;61455;-79
2023/04/09 02:25:52;;;;;;;15.80;9.80;;;;;;;8.70;85.89;100313.13;106287;1254;73708;-80
2023/04/09 02:28:25;;;;;;;12.90;9.60;;;;;;;8.64;85.80;100313.12;106046;1257;69442;-74
2023/04/09 02:30:53;;;;;;;13.90;7.90;;;;;;;8.59;85.69;100312.72;105779;1254;71814;-75
2023/04/09 02:33:21;;;;;;;13.30;7.00;;;;;;;8.63;85.66;100320.95;105598;1253;62889;-75
2023/04/09 02:35:50;;;;;;;11.80;7.40;;;;;;;8.68;85.76;100324.45;106001;1253;60864;-73
2023/04/09 02:38:19;;;;;;;9.50;7.80;;;;;;;8.62;85.85;100321.73;105895;1252;73830;-75
2023/04/09 02:40:47;;;;;;;14.00;8.70;;;;;;;8.59;86.39;100325.64;105856;1254;69667;-75
2023/04/09 02:43:16;;;;;;;12.70;7.20;;;;;;;8.56;85.97;100320.93;105895;1253;73649;-74
2023/04/09 02:45:45;;;;;;;12.10;7.70;;;;;;;8.53;85.75;100321.73;105883;1253;63208;-73
2023/04/09 02:48:13;;;;;;;10.10;6.50;;;;;;;8.60;85.63;100324.44;105835;1254;61357;-74
2023/04/09 02:50:45;;;;;;;12.70;7.60;;;;;;;8.67;85.54;100321.67;106004;1254;73827;-75
2023/04/09 02:53:13;;;;;;;14.10;9.00;;;;;;;8.67;85.66;100315.86;105773;1256;71527;-75
2023/04/09 02:55:43;;;;;;;15.30;8.70;;;;;;;8.64;85.52;100316.64;106032;1254;73650;-72
2023/04/09 02:58:11;;;;;;;11.20;8.60;;;;;;;8.60;85.04;100316.65;106282;1259;60436;-73
2023/04/09 03:00:39;;;;;;;9.40;7.50;;;;;;;8.56;84.97;100316.88;106199;1258;60353;-72
2023/04/09 03:03:08;;;;;;;13.50;8.10;;;;;;;8.60;84.66;100316.32;105952;1255;73970;-73
2023/04/09 03:05:37;;;;;;;11.80;8.80;;;;;;;8.61;84.26;100319.02;105979;1260;69440;-75
2023/04/09 03:08:06;;;;;;;10.20;8.00;;;;;;;8.54;84.78;100320.77;105854;1254;73576;-73
2023/04/09 03:10:35;;;;;;;11.10;8.50;;;;;;;8.47;84.52;100321.38;105933;1254;61506;-72
2023/04/09 03:13:04;;;;;;;10.20;7.20;;;;;;;8.37;84.71;100321.21;105909;1259;61547;-72
2023/04/09 03:15:32;;;;;;;14.00;7.80;;;;;;;8.38;84.86;100324.08;106021;1260;74062;-73
2023/04/09 03:18:01;;;;;;;12.30;8.80;;;;;;;8.43;84.79;100322.12;106081;1257;70769;-72
2023/04/09 03:20:29;;;;;;;11.90;8.80;;;;;;;8.37;84.88;100327.54;106098;1254;72596;-72
2023/04/09 03:23:00;;;;;;;14.10;8.90;;;;;;;8.32;85.13;100323.67;106007;1254;61762;-74
2023/04/09 03:25:32;;;;;;;10.60;8.70;;;;;;;8.27;85.38;100326.34;106020;1253;61355;-74
2023/04/09 03:28:03;;;;;;;11.20;8.20;;;;;;;8.23;85.17;100327.17;105850;1258;73624;-74
2023/04/09 03:30:39;;;;;;;12.00;7.70;;;;;;;8.28;84.81;100323.18;106219;1254;70931;-75
2023/04/09 03:33:07;;;;;;;17.00;8.90;;;;;;;8.31;85.04;100323.50;106273;1253;72881;-74
2023/04/09 03:35:44;;;;;;;12.10;9.80;;;;;;;8.25;84.88;100321.90;106033;1254;60951;-74
2023/04/09 03:38:14;;;;;;;14.40;9.30;;;;;;;8.08;84.85;100323.23;105990;1253;60755;-74
2023/04/09 03:40:42;;;;;;;12.30;8.00;;;;;;;7.97;85.43;100324.05;105847;1257;73611;-73
2023/04/09 03:43:11;;;;;;;10.70;8.10;;;;;;;8.01;85.47;100319.32;105987;1254;69643;-73
2023/04/09 03:45:41;;;;;;;10.40;8.10;;;;;;;8.03;85.19;100320.71;106094;1254;72866;-73
2023/04/09 03:48:22;;;;;;;14.30;9.70;;;;;;;7.92;85.43;100319.23;105974;1254;60721;-74
2023/04/09 03:50:52;;;;;;;11.70;10.10;;;;;;;7.82;85.75;100315.36;106002;1259;60525;-74
2023/04/09 03:53:31;;;;;;;14.90;10.40;;;;;;;7.72;86.03;100316.79;105846;1254;74327;-75
2023/04/09 03:56:03;;;;;;;11.70;8.70;;;;;;;7.66;86.83;100318.66;105848;1254;69672;-75
2023/04/09 03:58:31;;;;;;;15.10;11.40;;;;;;;7.78;87.14;100321.14;105829;1254;72633;-74
2023/04/09 04:01:01;;;;;;;19.50;13.20;;;;;;;7.91;87.45;100320.34;105844;1254;61329;-75
2023/04/09 04:03:33;;;;;;;19.20;13.80;;;;;;;7.97;87.85;100321.06;105919;1254;61143;-75
2023/04/09 04:06:08;;;;;;;49.00;43.70;;;;;;;8.01;88.12;100320.02;105743;1255;73259;-75
2023/04/09 04:09:03;;;;;;;32.30;28.90;;;;;;;8.06;88.11;100317.65;105695;1255;70100;-74
2023/04/09 04:11:37;;;;;;;24.30;17.90;;;;;;;8.20;88.03;100321.15;105822;1254;73289;-75
2023/04/09 04:14:08;;;;;;;17.40;13.60;;;;;;;8.31;88.07;100324.08;106031;1253;61368;-75
2023/04/09 04:16:41;;;;;;;19.40;15.10;;;;;;;8.33;88.05;100327.89;105847;1253;61075;-74
2023/04/09 04:19:10;;;;;;;20.70;15.10;;;;;;;8.35;88.32;100332.83;106002;1258;73471;-76
2023/04/09 04:21:43;;;;;;;33.10;26.40;;;;;;;8.38;87.83;100336.07;105943;1254;70381;-75
2023/04/09 04:24:13;;;;;;;23.30;19.00;;;;;;;8.49;87.68;100334.23;105742;1253;71686;-75
2023/04/09 04:26:43;;;;;;;28.50;23.40;;;;;;;8.58;87.44;100334.99;105840;1260;60790;-75
2023/04/09 04:29:13;;;;;;;30.40;25.70;;;;;;;8.60;87.20;100339.30;105912;1259;61375;-75
2023/04/09 04:31:52;;;;;;;28.90;25.60;;;;;;;8.61;87.24;100343.21;105878;1255;74735;-75
2023/04/09 04:34:24;;;;;;;31.40;26.70;;;;;;;8.62;87.21;100347.88;106056;1253;70513;-73
2023/04/09 04:37:07;;;;;;;25.80;21.90;;;;;;;8.73;87.06;100342.62;108556;1253;72315;-73
2023/04/09 04:39:35;;;;;;;25.50;19.60;;;;;;;8.82;87.06;100345.90;108390;1252;60374;-76
2023/04/09 04:42:09;;;;;;;17.60;15.10;;;;;;;8.83;86.94;100348.41;108619;1253;60522;-73
2023/04/09 04:44:37;;;;;;;18.30;13.70;;;;;;;8.86;86.83;100346.60;108608;1253;74188;-75
2023/04/09 04:47:28;;;;;;;15.70;10.40;;;;;;;8.90;86.63;100347.28;108870;1253;69214;-76
2023/04/09 04:49:58;;;;;;;13.50;10.30;;;;;;;9.04;86.29;100347.77;107657;1255;72512;-75
2023/04/09 04:52:30;;;;;;;15.00;9.70;;;;;;;9.11;85.99;100350.80;107345;1253;60452;-74
2023/04/09 04:55:01;;;;;;;12.50;9.60;;;;;;;9.12;85.80;100354.06;106794;1256;60247;-74
2023/04/09 04:57:29;;;;;;;13.30;10.20;;;;;;;9.15;85.84;100358.38;107419;1253;73399;-74
2023/04/09 04:59:59;;;;;;;12.20;10.10;;;;;;;9.18;85.76;100356.48;106822;1253;70979;-73
2023/04/09 05:02:28;;;;;;;13.10;9.30;;;;;;;9.34;85.24;100357.88;106810;1255;72560;-74
2023/04/09 05:05:24;;;;;;;11.50;9.00;;;;;;;9.47;85.06;100356.98;108030;1254;59994;-73
2023/04/09 05:07:58;;;;;;;13.00;9.40;;;;;;;9.52;84.86;100355.27;108703;1254;59125;-74
2023/04/09 05:10:26;;;;;;;16.60;11.00;;;;;;;9.56;84.19;100358.55;108890;1253;74964;-76
2023/04/09 05:13:03;;;;;;;14.70;9.90;;;;;;;9.64;84.36;100360.14;108699;1253;70242;-75
2023/04/09 05:15:41;;;;;;;10.80;9.00;;;;;;;9.82;83.63;100365.95;109172;1253;71630;-77
2023/04/09 05:18:10;;;;;;;14.80;10.20;;;;;;;9.94;83.41;100365.49;109078;1252;60103;-77
2023/04/09 05:20:38;;;;;;;16.60;10.60;;;;;;;10.03;83.44;100367.52;109224;1253;60393;-75
2023/04/09 05:23:13;;;;;;;14.20;11.10;;;;;;;10.11;82.88;100368.02;109117;1253;72570;-76
2023/04/09 05:25:48;;;;;;;12.80;9.90;;;;;;;10.17;82.40;100366.50;109254;1253;71398;-77
2023/04/09 05:28:38;;;;;;;11.50;9.80;;;;;;;10.26;82.17;100366.84;109213;1253;72668;-78
2023/04/09 05:31:15;;;;;;;13.60;9.90;;;;;;;10.44;81.70;100369.41;109108;1253;60190;-77
2023/04/09 05:33:53;;;;;;;14.20;10.50;;;;;;;10.54;81.34;100365.39;109259;1252;59949;-76
2023/04/09 05:36:26;;;;;;;12.10;9.60;;;;;;;10.59;80.86;100367.90;109197;1253;74770;-77
2023/04/09 05:39:01;;;;;;;12.90;9.90;;;;;;;10.62;80.29;100366.66;109069;1253;69706;-76
2023/04/09 05:41:31;;;;;;;12.90;10.30;;;;;;;10.65;79.81;100366.42;108370;1253;72596;-74
2023/04/09 05:44:20;;;;;;;14.20;9.80;;;;;;;10.66;79.50;100368.78;107217;1253;61061;-73
2023/04/09 05:46:50;;;;;;;13.70;9.70;;;;;;;10.79;79.28;100366.07;108703;1253;61287;-75
2023/04/09 05:49:23;;;;;;;11.50;10.30;;;;;;;10.86;78.85;100365.20;108335;1255;72848;-75
2023/04/09 05:51:52;;;;;;;12.80;10.10;;;;;;;10.88;78.62;100364.07;108833;1253;68944;-74
2023/04/09 05:54:25;;;;;;;12.20;9.60;;;;;;;10.93;78.64;100362.77;109118;1253;72468;-78
2023/04/09 05:56:54;;;;;;;16.50;10.90;;;;;;;10.99;78.71;100371.34;108753;1252;59555;-74
2023/04/09 05:59:31;;;;;;;14.60;11.20;;;;;;;11.04;78.16;100369.55;109400;1253;60312;-74
2023/04/09 06:02:01;;;;;;;12.40;9.50;;;;;;;11.04;77.86;100372.44;109365;1252;73938;-74
2023/04/09 06:04:30;;;;;;;16.10;9.90;;;;;;;11.15;77.36;100374.63;109242;1253;69388;-75
2023/04/09 06:07:02;;;;;;;12.50;10.80;;;;;;;11.29;77.27;100375.24;109302;1253;72671;-72
2023/04/09 06:09:31;;;;;;;13.70;10.20;;;;;;;11.36;77.27;100374.19;109324;1253;60053;-75
2023/04/09 06:11:59;;;;;;;16.60;12.60;;;;;;;11.43;77.08;100376.27;108886;1253;60012;-74
2023/04/09 06:14:28;;;;;;;16.30;11.40;;;;;;;11.53;76.95;100380.54;108626;1253;72917;-74
2023/04/09 06:16:58;;;;;;;15.10;9.30;;;;;;;11.63;76.33;100382.55;108521;1253;70085;-75
2023/04/09 06:19:27;;;;;;;13.70;10.30;;;;;;;11.72;75.82;100385.55;108662;1257;70741;-73
2023/04/09 06:21:55;;;;;;;9.70;8.40;;;;;;;11.80;75.58;100381.61;109480;1253;62682;-72
2023/04/09 06:24:23;;;;;;;13.00;9.00;;;;;;;11.98;75.09;100381.26;109216;1252;58654;-73
2023/04/09 06:26:52;;;;;;;14.90;8.50;;;;;;;12.10;74.72;100382.28;109289;1252;72595;-72
2023/04/09 06:29:23;;;;;;;10.50;8.40;;;;;;;12.17;74.47;100387.38;108292;1253;67959;-73
2023/04/09 06:31:54;;;;;;;13.70;9.40;;;;;;;12.22;74.10;100391.87;107721;1256;72644;-73
2023/04/09 06:34:22;;;;;;;14.40;9.10;;;;;;;12.23;73.63;100394.38;107539;1253;60368;-73
2023/04/09 06:36:57;;;;;;;13.00;8.20;;;;;;;12.24;73.40;100393.56;108042;1252;59045;-75
2023/04/09 06:39:27;;;;;;;13.50;9.40;;;;;;;12.25;73.10;100394.78;108394;1253;73142;-73
2023/04/09 06:41:55;;;;;;;13.20;9.30;;;;;;;12.25;73.09;100392.09;108306;1256;70190;-74
2023/04/09 06:44:36;;;;;;;9.20;8.20;;;;;;;12.28;73.09;100389.06;108745;1253;72296;-74
2023/04/09 06:47:06;;;;;;;8.80;7.90;;;;;;;12.45;72.89;100390.08;108834;1252;60788;-74
2023/04/09 06:49:39;;;;;;;13.20;9.10;;;;;;;12.57;72.29;100391.14;109048;1253;58392;-75
2023/04/09 06:52:08;;;;;;;12.90;8.20;;;;;;;12.61;71.90;100390.94;108055;1253;73923;-74
2023/04/09 06:54:36;;;;;;;12.30;9.30;;;;;;;12.65;71.80;100392.94;108121;1253;68866;-74
2023/04/09 06:57:08;;;;;;;11.50;10.00;;;;;;;12.71;71.62;100395.51;109291;1254;74180;-74
2023/04/09 06:59:37;;;;;;;15.30;10.70;;;;;;;12.76;71.58;100392.11;109180;1254;59108;-74
2023/04/09 07:02:06;;;;;;;13.60;11.50;;;;;;;12.79;71.43;100392.14;108625;1254;60021;-73
2023/04/09 07:04:35;;;;;;;14.60;11.40;;;;;;;12.80;71.31;100394.48;108218;1254;73690;-74
2023/04/09 07:07:04;;;;;;;15.60;13.00;;;;;;;12.79;71.16;100396.54;107269;1254;70387;-74
2023/04/09 07:09:32;;;;;;;19.70;13.70;;;;;;;12.78;71.36;100398.77;107539;1254;70818;-74
2023/04/09 07:12:00;;;;;;;17.40;14.20;;;;;;;12.79;71.62;100398.53;108217;1254;59211;-75
2023/04/09 07:14:29;;;;;;;18.50;12.20;;;;;;;12.83;71.54;100400.48;107058;1257;61244;-74
2023/04/09 07:16:58;;;;;;;14.60;11.80;;;;;;;12.96;71.20;100402.94;108440;1254;73801;-74
2023/04/09 07:19:26;;;;;;;17.80;11.70;;;;;;;13.07;70.95;100403.64;108836;1254;69138;-75
2023/04/09 07:21:55;;;;;;;13.10;11.10;;;;;;;13.13;70.72;100398.02;108141;1254;72691;-73
2023/04/09 07:24:23;;;;;;;19.40;11.80;;;;;;;13.20;70.67;100399.95;106672;1260;60309;-74
2023/04/09 07:26:52;;;;;;;12.40;11.10;;;;;;;13.31;70.76;100400.15;105823;1254;230660;-74
2023/04/09 07:30:24;;;;;;;16.10;11.40;;;;;;;13.45;70.24;100401.63;102732;1294;600329;-73
2023/04/09 07:32:54;;;;;;;14.00;11.00;;;;;;;13.52;69.93;100403.18;105107;1274;60329;-72
2023/04/09 07:35:23;;;;;;;13.90;11.30;;;;;;;13.58;69.47;100401.96;105339;1265;59776;-73
2023/04/09 07:37:51;;;;;;;15.10;10.50;;;;;;;13.66;69.26;100401.34;105421;1261;70978;-74
2023/04/09 07:40:20;;;;;;;13.70;10.90;;;;;;;13.74;69.24;100400.21;105281;1262;70091;-74
2023/04/09 07:42:49;;;;;;;13.90;11.50;;;;;;;13.85;69.16;100396.46;105543;1265;72085;-73
2023/04/09 07:45:18;;;;;;;13.90;10.60;;;;;;;13.99;69.00;100394.65;105313;1263;60572;-73
2023/04/09 07:47:54;;;;;;;12.20;10.60;;;;;;;14.15;68.60;100395.95;105590;1257;60394;-73
2023/04/09 07:50:23;;;;;;;16.00;10.80;;;;;;;14.25;68.12;100395.41;105483;1263;73470;-75
2023/04/09 07:52:51;;;;;;;11.20;10.00;;;;;;;14.35;67.44;100392.35;105739;1261;69880;-75
2023/04/09 07:55:19;;;;;;;16.20;11.50;;;;;;;14.43;67.27;100390.37;105547;1262;72692;-75
2023/04/09 07:57:50;;;;;;;13.30;10.60;;;;;;;14.53;67.04;100385.83;105725;1261;60390;-75
2023/04/09 08:00:22;;;;;;;15.20;10.70;;;;;;;14.65;66.69;100383.83;105717;1259;61260;-73
2023/04/09 08:02:56;;;;;;;14.50;9.40;;;;;;;14.79;66.65;100380.20;105706;1262;73438;-73
2023/04/09 08:05:24;;;;;;;13.10;10.10;;;;;;;14.93;66.50;100380.55;105781;1263;70674;-72
2023/04/09 08:07:56;;;;;;;14.60;9.40;;;;;;;15.07;66.13;100376.02;105574;1262;70799;-72
2023/04/09 08:10:24;;;;;;;17.00;9.10;;;;;;;15.18;65.76;100375.39;105665;1263;59613;-72
2023/04/09 08:12:52;;;;;;;10.50;8.60;;;;;;;15.28;65.23;100376.73;105594;1262;59576;-72
2023/04/09 08:15:28;;;;;;;15.00;10.00;;;;;;;15.37;65.10;100378.38;105582;1262;73042;-73
2023/04/09 08:17:57;;;;;;;11.10;8.70;;;;;;;15.43;64.82;100378.20;105640;1259;69780;-75
2023/04/09 08:20:26;;;;;;;11.90;8.40;;;;;;;15.48;64.81;100377.35;105705;1258;73974;-75
2023/04/09 08:22:54;;;;;;;10.90;8.20;;;;;;;15.53;64.41;100376.77;105766;1262;60157;-74
2023/04/09 08:25:22;;;;;;;9.50;8.60;;;;;;;15.56;64.30;100377.30;105721;1257;60401;-70
2023/04/09 08:27:50;;;;;;;9.50;8.30;;;;;;;15.59;64.12;100380.20;105578;1262;72454;-73
2023/04/09 08:30:19;;;;;;;11.70;9.00;;;;;;;15.59;63.98;100378.23;105548;1262;71094;-73
2023/04/09 08:32:48;;;;;;;13.70;8.30;;;;;;;15.62;63.77;100375.20;105701;1260;74225;-73
2023/04/09 08:35:19;;;;;;;16.10;8.70;;;;;;;15.63;63.53;100378.34;105725;1257;59725;-73
2023/04/09 08:37:48;;;;;;;15.70;7.90;;;;;;;15.64;63.56;100380.27;105623;1262;59759;-73
2023/04/09 08:40:16;;;;;;;11.10;7.50;;;;;;;15.69;63.42;100378.39;105758;1256;72865;-75
2023/04/09 08:42:47;;;;;;;7.70;6.90;;;;;;;15.74;62.88;100376.04;105759;1260;71578;-72
2023/04/09 08:45:15;;;;;;;8.10;6.90;;;;;;;15.78;62.61;100375.40;105643;1257;73593;-74
2023/04/09 08:47:44;;;;;;;9.90;7.20;;;;;;;15.86;62.58;100368.98;105694;1262;59713;-73
2023/04/09 08:50:13;;;;;;;13.00;7.40;;;;;;;16.01;62.50;100366.48;105597;1260;61558;-75
2023/04/09 08:52:41;;;;;;;8.50;6.00;;;;;;;16.26;62.06;100361.15;105807;1262;74125;-73
2023/04/09 08:55:10;;;;;;;8.70;7.00;;;;;;;16.53;61.08;100358.08;105780;1262;68303;-74
2023/04/09 08:57:39;;;;;;;10.10;6.90;;;;;;;16.83;60.39;100356.30;105644;1256;70508;-74
2023/04/09 09:00:09;;;;;;;7.60;5.90;;;;;;;17.15;59.25;100352.86;105597;1258;62334;-76
2023/04/09 09:02:59;;;;;;;10.90;6.70;;;;;;;17.46;58.35;100354.05;105602;1263;59651;-73
2023/04/09 09:05:37;;;;;;;9.40;6.00;;;;;;;17.81;57.08;100352.32;105714;1257;73644;-73
2023/04/09 09:08:07;;;;;;;8.90;6.70;;;;;;;18.15;56.79;100350.10;105664;1257;69137;-74
2023/04/09 09:10:45;;;;;;;10.70;6.50;;;;;;;18.58;55.88;100344.96;105737;1257;73301;-77
2023/04/09 09:13:16;;;;;;;8.30;6.10;;;;;;;19.13;54.69;100340.88;105621;1263;60988;-73
2023/04/09 09:15:46;;;;;;;8.10;4.90;;;;;;;19.63;52.93;100338.38;105760;1258;59725;-75
2023/04/09 09:18:16;;;;;;;8.70;5.40;;;;;;;20.13;51.89;100334.80;105694;1265;71949;-75
2023/04/09 09:20:45;;;;;;;7.30;5.30;;;;;;;20.57;49.70;100334.96;105696;1260;71179;-72
2023/04/09 09:23:13;;;;;;;5.80;5.00;;;;;;;20.79;48.43;100331.11;105565;1262;72632;-75
2023/04/09 09:25:41;;;;;;;7.00;4.80;;;;;;;20.85;48.13;100333.27;105778;1257;60617;-77
2023/04/09 09:28:11;;;;;;;8.50;5.40;;;;;;;20.86;48.27;100330.25;105689;1260;60746;-76
2023/04/09 09:30:40;;;;;;;5.90;4.50;;;;;;;20.84;47.61;100323.93;105661;1261;73930;-74
2023/04/09 09:33:09;;;;;;;5.20;4.60;;;;;;;20.82;47.33;100325.82;105496;1257;71186;-72
2023/04/09 09:35:52;;;;;;;8.20;4.20;;;;;;;20.76;46.74;100323.62;105516;1261;73592;-73
2023/04/09 09:38:21;;;;;;;7.90;4.20;;;;;;;20.69;46.65;100319.17;105616;1261;61360;-73
2023/04/09 09:40:51;;;;;;;8.60;4.80;;;;;;;20.64;46.64;100316.34;105776;1264;61835;-74
2023/04/09 09:43:20;;;;;;;5.20;4.10;;;;;;;20.85;46.05;100315.86;106112;1260;73319;-73
2023/04/09 09:45:48;;;;;;;6.10;4.40;;;;;;;21.10;45.88;100316.41;105725;1263;71584;-74
2023/04/09 09:48:16;;;;;;;6.20;4.00;;;;;;;21.37;45.29;100313.51;105584;1262;72398;-72
2023/04/09 09:50:45;;;;;;;6.00;4.20;;;;;;;21.48;44.24;100323.39;105530;1259;59661;-72
2023/04/09 09:53:14;;;;;;;7.60;4.50;;;;;;;21.33;43.95;100319.65;105712;1260;59759;-75
2023/04/09 09:55:42;;;;;;;4.80;4.20;;;;;;;21.07;43.93;100314.48;105640;1258;74779;-73
2023/04/09 09:58:16;;;;;;;6.10;4.80;;;;;;;20.78;44.41;100314.52;105626;1258;69485;-75
2023/04/09 10:00:45;;;;;;;6.50;3.90;;;;;;;20.71;44.93;100312.28;105837;1260;72870;-74
2023/04/09 10:03:20;;;;;;;7.60;4.80;;;;;;;20.71;45.00;100310.35;105620;1256;60597;-76
2023/04/09 10:05:48;;;;;;;5.20;4.30;;;;;;;20.69;44.86;100309.24;105607;1263;61556;-72
2023/04/09 10:08:17;;;;;;;6.30;4.20;;;;;;;20.65;45.03;100310.34;105859;1260;73367;-72
2023/04/09 10:10:45;;;;;;;7.50;4.50;;;;;;;20.77;45.15;100305.46;105491;1263;71431;-71
2023/04/09 10:13:17;;;;;;;5.80;4.70;;;;;;;21.08;44.54;100304.92;105705;1260;72883;-72
2023/04/09 10:15:45;;;;;;;7.10;3.80;;;;;;;21.56;43.62;100304.88;105669;1260;60441;-73
2023/04/09 10:18:14;;;;;;;7.40;4.40;;;;;;;21.90;42.97;100305.60;105557;1258;61113;-72
2023/04/09 10:20:55;;;;;;;5.80;4.10;;;;;;;21.99;42.44;100303.89;105655;1258;74233;-73
2023/04/09 10:23:41;;;;;;;9.70;4.50;;;;;;;21.71;42.52;100305.85;105518;1261;70275;-74
2023/04/09 10:26:10;;;;;;;10.80;4.40;;;;;;;21.25;43.24;100300.63;105538;1261;73552;-75
2023/04/09 10:28:40;;;;;;;6.40;5.10;;;;;;;20.94;43.94;100297.95;105807;1258;60874;-72
2023/04/09 10:31:08;;;;;;;5.50;4.00;;;;;;;20.66;44.47;100298.66;105766;1254;61384;-69
2023/04/09 10:34:02;;;;;;;5.90;4.40;;;;;;;20.41;45.01;100294.85;105832;1258;75312;-72
2023/04/09 10:36:30;;;;;;;7.00;4.40;;;;;;;20.23;45.43;100300.42;105862;1254;69608;-72
2023/04/09 10:39:12;;;;;;;7.50;4.10;;;;;;;20.01;45.38;100297.20;105807;1258;71937;-70
2023/04/09 10:41:40;;;;;;;10.00;4.60;;;;;;;19.76;45.44;100291.75;105734;1258;61174;-72
2023/04/09 10:44:23;;;;;;;6.60;4.70;;;;;;;19.52;45.90;100290.08;105810;1255;59811;-73
2023/04/09 10:46:55;;;;;;;7.50;4.20;;;;;;;19.27;46.23;100288.95;105880;1257;73910;-74
2023/04/09 10:49:25;;;;;;;9.10;4.00;;;;;;;19.10;46.71;100289.33;105840;1257;71888;-71
2023/04/09 10:52:09;;;;;;;7.70;4.20;;;;;;;19.05;46.70;100288.38;105814;1255;73529;-71
2023/04/09 10:54:45;;;;;;;5.70;4.10;;;;;;;19.40;46.71;100284.14;105785;1254;61443;-73
2023/04/09 10:57:18;;;;;;;6.20;4.50;;;;;;;19.99;46.03;100281.10;105796;1253;60104;-73
2023/04/09 10:59:54;;;;;;;8.50;4.40;;;;;;;20.79;44.90;100277.43;105812;1254;72900;-73
2023/04/09 11:02:38;;;;;;;6.10;4.00;;;;;;;21.71;43.49;100271.10;105565;1253;69964;-75
2023/04/09 11:05:18;;;;;;;;;;;;;;;22.71;42.33;100271.34;105767;1254;72968;-73
2023/04/09 11:07:52;;;;;;;7.90;4.30;;;;;;;23.68;40.18;100262.78;105799;1258;59730;-74
2023/04/09 11:10:27;;;;;;;6.30;3.90;;;;;;;24.55;39.45;100254.29;105809;1253;60570;-72
2023/04/09 11:12:56;;;;;;;6.80;3.70;;;;;;;25.33;38.53;100255.70;105832;1254;72611;-74
2023/04/09 11:15:27;;;;;;;6.20;4.00;;;;;;;26.04;36.89;100252.91;105973;1257;71315;-72
2023/04/09 11:17:56;;;;;;;4.40;3.70;;;;;;;26.55;36.04;100253.65;105886;1257;72955;-75
2023/04/09 11:20:30;;;;;;;6.90;3.70;;;;;;;26.93;35.57;100246.55;105828;1254;61161;-73
2023/04/09 11:22:59;;;;;;;5.50;4.10;;;;;;;27.20;35.38;100243.91;105748;1254;61037;-71
2023/04/09 11:25:35;;;;;;;4.80;3.20;;;;;;;27.39;35.25;100242.05;105765;1257;73984;-71
2023/04/09 11:28:23;;;;;;;5.10;4.00;;;;;;;27.62;34.90;100240.20;105861;1257;69065;-71
2023/04/09 11:30:54;;;;;;;9.20;4.60;;;;;;;27.72;34.78;100239.19;105849;1254;73724;-71
2023/04/09 11:33:30;;;;;;;5.60;4.00;;;;;;;27.74;35.07;100237.33;105864;1258;60710;-72